SPWJC EPBY-EPBY
Flight info
| Callsign | SPWJC |
|---|---|
| Flight time | 0h 16m |
| Altitude | 3000 |
| Route | TRAFFIC PATTERNS |
| Aircraft | C172/L-SFG/C |
Departure
| Time | 2026-05-08 21:07 |
|---|---|
| Airport | Ignacy Jan Paderewski Bydgoszcz Airport (EPBY) |
Arrival
| Time | 2026-05-08 21:23 |
|---|---|
| Airport | Ignacy Jan Paderewski Bydgoszcz Airport (EPBY) |
| Time | Latitude | Longitude | Altitude | Speed | Heading |
|---|---|---|---|---|---|
| 2026-05-08 20:57 | 53.09290 | 17.96520 | 238 ft | 0 kts | 325° |
| 2026-05-08 21:03 | 53.09293 | 17.96517 | 238 ft | 0 kts | 327° |
| 2026-05-08 21:03 | 53.09316 | 17.96555 | 236 ft | 8 kts | 85° |
| 2026-05-08 21:03 | 53.09324 | 17.96645 | 234 ft | 12 kts | 76° |
| 2026-05-08 21:04 | 53.09345 | 17.96902 | 232 ft | 22 kts | 83° |
| 2026-05-08 21:04 | 53.09364 | 17.97134 | 234 ft | 22 kts | 82° |
| 2026-05-08 21:04 | 53.09396 | 17.97496 | 230 ft | 38 kts | 85° |
| 2026-05-08 21:04 | 53.09432 | 17.97940 | 226 ft | 37 kts | 80° |
| 2026-05-08 21:05 | 53.09470 | 17.98388 | 227 ft | 42 kts | 88° |
| 2026-05-08 21:05 | 53.09505 | 17.98804 | 229 ft | 30 kts | 83° |
| 2026-05-08 21:05 | 53.09530 | 17.99104 | 229 ft | 21 kts | 82° |
| 2026-05-08 21:05 | 53.09552 | 17.99377 | 231 ft | 33 kts | 85° |
| 2026-05-08 21:06 | 53.09617 | 17.99658 | 228 ft | 19 kts | 354° |
| 2026-05-08 21:06 | 53.09693 | 17.99639 | 226 ft | 2 kts | 353° |
| 2026-05-08 21:06 | 53.09758 | 17.99623 | 224 ft | 18 kts | 352° |
| 2026-05-08 21:06 | 53.09821 | 17.99466 | 223 ft | 35 kts | 262° |
| 2026-05-08 21:07 | 53.09762 | 17.98760 | 256 ft | 79 kts | 264° |
| 2026-05-08 21:07 | 53.09677 | 17.97766 | 408 ft | 90 kts | 261° |
| 2026-05-08 21:07 | 53.09537 | 17.96767 | 649 ft | 89 kts | 258° |
| 2026-05-08 21:07 | 53.09264 | 17.95862 | 880 ft | 92 kts | 217° |
| 2026-05-08 21:08 | 53.08682 | 17.95716 | 1108 ft | 85 kts | 147° |
| 2026-05-08 21:08 | 53.08388 | 17.96429 | 1261 ft | 77 kts | 92° |
| 2026-05-08 21:08 | 53.08287 | 17.97347 | 1314 ft | 80 kts | 89° |
| 2026-05-08 21:08 | 53.08218 | 17.98246 | 1434 ft | 78 kts | 87° |
| 2026-05-08 21:09 | 53.08231 | 17.99155 | 1496 ft | 80 kts | 80° |
| 2026-05-08 21:09 | 53.08296 | 18.00073 | 1562 ft | 79 kts | 75° |
| 2026-05-08 21:09 | 53.08405 | 18.00974 | 1650 ft | 80 kts | 72° |
| 2026-05-08 21:09 | 53.08499 | 18.01920 | 1678 ft | 88 kts | 82° |
| 2026-05-08 21:10 | 53.08484 | 18.02896 | 1489 ft | 86 kts | 83° |
| 2026-05-08 21:10 | 53.08802 | 18.03656 | 1222 ft | 79 kts | 38° |
| 2026-05-08 21:10 | 53.09350 | 18.03926 | 882 ft | 89 kts | 1° |
| 2026-05-08 21:10 | 53.09724 | 18.03310 | 747 ft | 71 kts | 292° |
| 2026-05-08 21:11 | 53.09855 | 18.02515 | 624 ft | 74 kts | 288° |
| 2026-05-08 21:11 | 53.09940 | 18.01670 | 530 ft | 73 kts | 278° |
| 2026-05-08 21:11 | 53.09933 | 18.00822 | 403 ft | 74 kts | 265° |
| 2026-05-08 21:11 | 53.09860 | 17.99984 | 288 ft | 72 kts | 266° |
| 2026-05-08 21:12 | 53.09795 | 17.99185 | 225 ft | 63 kts | 265° |
| 2026-05-08 21:12 | 53.09734 | 17.98485 | 223 ft | 75 kts | 262° |
| 2026-05-08 21:12 | 53.09653 | 17.97606 | 422 ft | 76 kts | 261° |
| 2026-05-08 21:12 | 53.09546 | 17.96636 | 559 ft | 90 kts | 262° |
| 2026-05-08 21:13 | 53.09418 | 17.95577 | 750 ft | 96 kts | 248° |
| 2026-05-08 21:13 | 53.08876 | 17.95004 | 905 ft | 101 kts | 173° |
| 2026-05-08 21:13 | 53.08420 | 17.95770 | 820 ft | 102 kts | 89° |
| 2026-05-08 21:13 | 53.08447 | 17.96813 | 859 ft | 81 kts | 81° |
| 2026-05-08 21:14 | 53.08518 | 17.97689 | 863 ft | 72 kts | 77° |
| 2026-05-08 21:14 | 53.08597 | 17.98486 | 844 ft | 68 kts | 78° |
| 2026-05-08 21:14 | 53.08649 | 17.99259 | 852 ft | 67 kts | 77° |
| 2026-05-08 21:14 | 53.08720 | 18.00020 | 874 ft | 66 kts | 76° |
| 2026-05-08 21:15 | 53.08795 | 18.00761 | 905 ft | 65 kts | 77° |
| 2026-05-08 21:15 | 53.08935 | 18.01420 | 941 ft | 58 kts | 36° |
| 2026-05-08 21:15 | 53.09346 | 18.01515 | 736 ft | 63 kts | 6° |
| 2026-05-08 21:15 | 53.09748 | 18.01317 | 524 ft | 66 kts | 320° |
| 2026-05-08 21:16 | 53.09901 | 18.00616 | 353 ft | 67 kts | 267° |
| 2026-05-08 21:16 | 53.09850 | 17.99847 | 260 ft | 66 kts | 267° |
| 2026-05-08 21:16 | 53.09798 | 17.99159 | 224 ft | 50 kts | 257° |
| 2026-05-08 21:16 | 53.09724 | 17.98398 | 307 ft | 75 kts | 259° |
| 2026-05-08 21:17 | 53.09625 | 17.97499 | 509 ft | 81 kts | 264° |
| 2026-05-08 21:17 | 53.09493 | 17.96549 | 680 ft | 91 kts | 252° |
| 2026-05-08 21:17 | 53.09002 | 17.96034 | 874 ft | 91 kts | 158° |
| 2026-05-08 21:17 | 53.08683 | 17.96772 | 1035 ft | 76 kts | 97° |
| 2026-05-08 21:18 | 53.08638 | 17.97600 | 1023 ft | 69 kts | 83° |
| 2026-05-08 21:18 | 53.08673 | 17.98395 | 1051 ft | 70 kts | 77° |
| 2026-05-08 21:18 | 53.08764 | 17.99206 | 1031 ft | 73 kts | 75° |
| 2026-05-08 21:18 | 53.08873 | 18.00033 | 982 ft | 77 kts | 72° |
| 2026-05-08 21:19 | 53.09008 | 18.00839 | 887 ft | 60 kts | 56° |
| 2026-05-08 21:19 | 53.09348 | 18.01138 | 687 ft | 61 kts | 7° |
| 2026-05-08 21:19 | 53.09735 | 18.00822 | 462 ft | 66 kts | 326° |
| 2026-05-08 21:19 | 53.09872 | 18.00127 | 292 ft | 67 kts | 269° |
| 2026-05-08 21:20 | 53.09813 | 17.99405 | 224 ft | 55 kts | 266° |
| 2026-05-08 21:20 | 53.09758 | 17.98700 | 264 ft | 73 kts | 266° |
| 2026-05-08 21:20 | 53.09665 | 17.97798 | 429 ft | 85 kts | 260° |
| 2026-05-08 21:20 | 53.09446 | 17.96892 | 644 ft | 87 kts | 268° |
| 2026-05-08 21:21 | 53.09444 | 17.95929 | 881 ft | 86 kts | 227° |
| 2026-05-08 21:21 | 53.08973 | 17.96103 | 877 ft | 80 kts | 103° |
| 2026-05-08 21:21 | 53.08882 | 17.96987 | 900 ft | 75 kts | 88° |
| 2026-05-08 21:21 | 53.08873 | 17.97864 | 947 ft | 76 kts | 84° |
| 2026-05-08 21:22 | 53.08898 | 17.98749 | 998 ft | 77 kts | 81° |
| 2026-05-08 21:22 | 53.08922 | 17.99497 | 1062 ft | 58 kts | 79° |
| 2026-05-08 21:22 | 53.08957 | 18.00161 | 1003 ft | 58 kts | 69° |
| 2026-05-08 21:22 | 53.09217 | 18.00661 | 759 ft | 62 kts | 27° |
| 2026-05-08 21:23 | 53.09657 | 18.00647 | 501 ft | 67 kts | 333° |
| 2026-05-08 21:23 | 53.09855 | 17.99963 | 296 ft | 69 kts | 277° |
| 2026-05-08 21:23 | 53.09799 | 17.99222 | 224 ft | 59 kts | 263° |
| 2026-05-08 21:23 | 53.09758 | 17.98654 | 223 ft | 42 kts | 265° |
| 2026-05-08 21:24 | 53.09718 | 17.98216 | 223 ft | 42 kts | 263° |
| 2026-05-08 21:24 | 53.09672 | 17.97680 | 223 ft | 50 kts | 261° |
| 2026-05-08 21:24 | 53.09623 | 17.97092 | 221 ft | 49 kts | 262° |
| 2026-05-08 21:24 | 53.09538 | 17.96829 | 225 ft | 15 kts | 152° |
| 2026-05-08 21:25 | 53.09470 | 17.96849 | 227 ft | 0 kts | 172° |
| 2026-05-08 21:25 | 53.09469 | 17.96849 | 227 ft | 1 kts | 172° |
| 2026-05-08 21:25 | 53.09374 | 17.96864 | 231 ft | 20 kts | 189° |
| 2026-05-08 21:26 | 53.09322 | 17.96610 | 235 ft | 31 kts | 262° |
| 2026-05-08 21:26 | 53.09269 | 17.96533 | 239 ft | 11 kts | 64° |
| 2026-05-08 21:26 | 53.09290 | 17.96525 | 238 ft | 0 kts | 313° |